M01 weather

General Dewitt Spain Airport
Memphis, Tennessee, United States

Public forecast

Using degrees Fahrenheit for public forecast. Weather courtesy of forecast.io.

Closest aviation weather report (METAR) to General Dewitt Spain Airport

Closest report is West Memphis Municipal Airport, 9.7 nm (17.9 km) WSW. Retrieved 2019/10/16 03:32 UTC (22 minutes ago):

KAWM 160332Z AUTO 22006KT 10SM BKN007 OVC011 21/20 A2987 RMK AO2 T02060200

Closest aviation forecast (TAF) to General Dewitt Spain Airport

Closest forecast is Memphis International Airport, 10.2 nm (19.0 km) SSE. Retrieved 2019-10-16 04:00 UTC (0 seconds ago):

TAF COR KMEM 160359Z 1604/1706 21006KT P6SM VCSH SCT006 OVC011 TEMPO 1604/1605 BKN006 FM160500 35012G20KT P6SM VCSH BKN025 BKN050 FM161200 36012KT P6SM SKC FM162100 33007KT P6SM SKC